createdAt,value
2023-03-10T00:01:31.119Z,41.43
2023-03-10T00:03:59.856Z,35.37
2023-03-10T00:06:29.280Z,35.47
2023-03-10T00:08:56.064Z,106.37
2023-03-10T00:11:22.781Z,85.60
2023-03-10T00:13:49.530Z,47.70
2023-03-10T00:16:22.325Z,46.60
2023-03-10T00:18:49.632Z,94.60
2023-03-10T00:21:19.794Z,57.43
2023-03-10T00:23:47.173Z,50.60
2023-03-10T00:26:15.924Z,33.13
2023-03-10T00:28:42.797Z,31.30
2023-03-10T00:31:15.428Z,25.57
2023-03-10T00:33:42.772Z,28.63
2023-03-10T00:36:13.619Z,35.10
2023-03-10T00:38:41.922Z,26.93
2023-03-10T00:41:12.078Z,27.00
2023-03-10T00:43:39.148Z,29.77
2023-03-10T00:46:06.468Z,27.50
2023-03-10T00:48:33.998Z,28.90
2023-03-10T00:51:01.193Z,27.50
2023-03-10T00:53:28.784Z,25.43
2023-03-10T00:56:04.857Z,28.80
2023-03-10T00:58:33.057Z,27.67
2023-03-10T01:01:00.150Z,31.10
2023-03-10T01:03:27.444Z,26.90
2023-03-10T01:05:55.213Z,31.97
2023-03-10T01:08:22.428Z,30.87
2023-03-10T01:10:49.949Z,33.90
2023-03-10T01:13:18.097Z,31.03
2023-03-10T01:15:44.894Z,28.20
2023-03-10T01:18:11.612Z,25.57
2023-03-10T01:20:38.340Z,34.97
2023-03-10T01:23:05.188Z,29.93
2023-03-10T01:25:32.055Z,28.70
2023-03-10T01:27:58.703Z,30.73
2023-03-10T01:30:25.477Z,28.57
2023-03-10T01:32:52.254Z,29.37
2023-03-10T01:35:19.038Z,30.87
2023-03-10T01:37:45.850Z,25.67
2023-03-10T01:40:16.631Z,30.93
2023-03-10T01:42:43.982Z,33.17
2023-03-10T01:45:30.792Z,27.13
2023-03-10T01:47:57.604Z,28.43
2023-03-10T01:50:24.790Z,29.00
2023-03-10T01:52:58.498Z,27.80
2023-03-10T01:55:29.952Z,28.77
2023-03-10T01:57:57.859Z,29.47
2023-03-10T02:00:26.548Z,31.40
2023-03-10T02:03:12.824Z,30.70
2023-03-10T02:05:45.491Z,31.87
2023-03-10T02:08:12.835Z,32.00
2023-03-10T02:10:39.603Z,34.60
2023-03-10T02:13:06.794Z,28.70
2023-03-10T02:15:33.845Z,33.50
2023-03-10T02:18:03.075Z,30.43
2023-03-10T02:20:45.005Z,30.40
2023-03-10T02:23:19.409Z,32.47
2023-03-10T02:25:55.594Z,34.20
2023-03-10T02:28:23.637Z,31.63
2023-03-10T02:30:53.340Z,30.57
2023-03-10T02:33:24.246Z,35.10
2023-03-10T02:35:51.599Z,27.43
2023-03-10T02:38:18.523Z,31.83
2023-03-10T02:40:45.406Z,29.73
2023-03-10T02:43:12.146Z,32.43
2023-03-10T02:45:41.390Z,37.53
2023-03-10T02:48:14.670Z,32.40
2023-03-10T02:50:44.774Z,33.60
2023-03-10T02:53:16.045Z,30.27
2023-03-10T02:55:42.875Z,28.33
2023-03-10T02:58:10.096Z,30.67
2023-03-10T03:00:39.219Z,33.33
2023-03-10T03:03:07.285Z,31.70
2023-03-10T03:05:34.690Z,30.17
2023-03-10T03:08:01.654Z,33.50
2023-03-10T03:10:30.017Z,31.50
2023-03-10T03:12:57.025Z,37.17
2023-03-10T03:15:26.049Z,36.67
2023-03-10T03:17:54.235Z,37.43
2023-03-10T03:20:21.846Z,34.63
2023-03-10T03:22:48.593Z,42.70
2023-03-10T03:25:18.976Z,38.13
2023-03-10T03:27:46.233Z,48.17
2023-03-10T03:30:22.458Z,43.53
2023-03-10T03:32:49.840Z,41.97
2023-03-10T03:35:29.408Z,43.90
2023-03-10T03:37:56.573Z,38.53
2023-03-10T03:40:25.240Z,43.53
2023-03-10T03:42:53.616Z,41.40
2023-03-10T03:45:23.668Z,45.53
2023-03-10T03:47:50.977Z,39.50
2023-03-10T03:50:19.124Z,41.63
2023-03-10T03:52:46.327Z,39.43
2023-03-10T03:55:16.151Z,43.17
2023-03-10T03:57:45.886Z,44.97
2023-03-10T04:00:19.979Z,45.67
2023-03-10T04:02:47.304Z,41.40
2023-03-10T04:05:14.366Z,42.00
2023-03-10T04:07:42.428Z,44.77
2023-03-10T04:10:12.764Z,49.20
2023-03-10T04:12:39.618Z,40.17
2023-03-10T04:15:08.384Z,46.77
2023-03-10T04:17:36.093Z,46.27
2023-03-10T04:20:08.106Z,45.73
2023-03-10T04:22:36.374Z,43.73
2023-03-10T04:25:04.316Z,41.33
2023-03-10T04:27:31.799Z,43.07
2023-03-10T04:29:58.604Z,41.17
2023-03-10T04:32:25.835Z,37.67
2023-03-10T04:34:52.889Z,43.97
2023-03-10T04:37:21.131Z,45.70
2023-03-10T04:39:47.996Z,41.00
2023-03-10T04:42:14.739Z,36.30
2023-03-10T04:44:41.816Z,42.73
2023-03-10T04:47:08.564Z,39.80
2023-03-10T04:49:37.407Z,35.83
2023-03-10T04:52:05.495Z,37.60
2023-03-10T04:54:32.344Z,35.50
2023-03-10T04:56:59.092Z,38.13
2023-03-10T04:59:25.902Z,32.23
2023-03-10T05:01:52.648Z,35.87
2023-03-10T05:04:19.503Z,34.97
2023-03-10T05:06:50.163Z,33.07
2023-03-10T05:09:17.174Z,39.30
2023-03-10T05:11:43.861Z,36.13
2023-03-10T05:14:12.285Z,32.73
2023-03-10T05:16:39.052Z,31.40
2023-03-10T05:19:06.251Z,31.40
2023-03-10T05:21:33.107Z,29.50
2023-03-10T05:24:03.905Z,29.10
2023-03-10T05:26:33.479Z,30.83
2023-03-10T05:29:03.894Z,30.53
2023-03-10T05:31:30.887Z,33.33
2023-03-10T05:33:57.700Z,34.40
2023-03-10T05:36:24.400Z,29.80
2023-03-10T05:38:51.370Z,35.50
2023-03-10T05:41:18.326Z,29.73
2023-03-10T05:43:45.062Z,38.03
2023-03-10T05:46:12.160Z,33.53
2023-03-10T05:48:39.311Z,33.77
2023-03-10T05:51:08.743Z,30.97
2023-03-10T05:53:37.081Z,32.43
2023-03-10T05:56:18.092Z,31.23
2023-03-10T05:58:46.566Z,30.27
2023-03-10T06:01:14.065Z,31.93
2023-03-10T06:03:40.922Z,30.40
2023-03-10T06:06:07.884Z,33.10
2023-03-10T06:08:35.388Z,31.50
2023-03-10T06:11:02.767Z,29.77
2023-03-10T06:13:29.448Z,28.07
2023-03-10T06:15:58.923Z,27.80
2023-03-10T06:18:26.963Z,28.93
2023-03-10T06:20:54.428Z,25.60
2023-03-10T06:23:22.204Z,23.93
2023-03-10T06:26:00.205Z,28.10
2023-03-10T06:28:32.800Z,27.27
2023-03-10T06:31:01.306Z,24.83
2023-03-10T06:33:29.626Z,26.83
2023-03-10T06:35:57.318Z,31.23
2023-03-10T06:38:24.646Z,28.30
2023-03-10T06:40:51.773Z,24.73
2023-03-10T06:43:18.967Z,22.67
2023-03-10T06:45:46.926Z,23.57
2023-03-10T06:48:14.568Z,21.93
2023-03-10T06:50:49.747Z,30.10
2023-03-10T06:53:19.539Z,26.10
2023-03-10T06:55:57.329Z,21.93
2023-03-10T06:58:23.996Z,28.97
2023-03-10T07:00:50.807Z,21.33
2023-03-10T07:03:18.562Z,22.50
2023-03-10T07:05:45.308Z,25.43
2023-03-10T07:08:12.129Z,23.43
2023-03-10T07:10:38.902Z,23.07
2023-03-10T07:13:05.783Z,20.03
2023-03-10T07:15:32.640Z,25.37
2023-03-10T07:18:00.279Z,26.43
2023-03-10T07:20:27.189Z,23.23
2023-03-10T07:22:53.925Z,24.97
2023-03-10T07:25:20.585Z,23.30
2023-03-10T07:27:47.420Z,20.90
2023-03-10T07:30:14.474Z,23.57
2023-03-10T07:32:41.428Z,21.40
2023-03-10T07:35:09.178Z,20.97
2023-03-10T07:37:40.607Z,21.83
2023-03-10T07:40:09.758Z,24.23
2023-03-10T07:42:36.454Z,26.27
2023-03-10T07:45:03.756Z,24.50
2023-03-10T07:47:30.814Z,20.93
2023-03-10T07:49:57.534Z,28.40
2023-03-10T07:52:24.558Z,29.00
2023-03-10T07:54:51.450Z,28.20
2023-03-10T07:57:18.249Z,30.00
2023-03-10T07:59:45.080Z,25.30
2023-03-10T08:02:13.660Z,27.50
2023-03-10T08:04:41.381Z,22.70
2023-03-10T08:07:08.605Z,27.30
2023-03-10T08:09:35.685Z,25.97
2023-03-10T08:12:03.501Z,22.60
2023-03-10T08:14:31.850Z,34.67
2023-03-10T08:16:59.469Z,32.87
2023-03-10T08:19:27.648Z,31.80
2023-03-10T08:21:56.063Z,29.53
2023-03-10T08:24:23.293Z,27.43
2023-03-10T08:26:50.266Z,29.37
2023-03-10T08:29:17.555Z,28.73
2023-03-10T08:31:44.692Z,29.80
2023-03-10T08:34:11.566Z,24.37
2023-03-10T08:36:39.124Z,23.73
2023-03-10T08:39:07.563Z,26.70
2023-03-10T08:41:49.805Z,26.10
2023-03-10T08:44:18.659Z,29.33
2023-03-10T08:46:47.770Z,22.33
2023-03-10T08:49:16.930Z,20.27
2023-03-10T08:51:43.927Z,24.67
2023-03-10T08:54:12.655Z,25.60
2023-03-10T08:56:39.548Z,29.47
2023-03-10T08:59:06.312Z,26.73
2023-03-10T09:01:36.722Z,24.60
2023-03-10T09:04:06.098Z,26.87
2023-03-10T09:06:33.697Z,29.67
2023-03-10T09:09:00.777Z,26.27
2023-03-10T09:11:31.835Z,32.87
2023-03-10T09:13:59.555Z,27.37
2023-03-10T09:16:28.694Z,26.10
2023-03-10T09:18:59.392Z,25.07
2023-03-10T09:21:27.542Z,25.63
2023-03-10T09:23:54.412Z,23.43
2023-03-10T09:26:22.074Z,27.90
2023-03-10T09:28:50.958Z,25.30
2023-03-10T09:31:21.976Z,30.77
2023-03-10T09:33:48.930Z,29.97
2023-03-10T09:36:16.499Z,24.93
2023-03-10T09:38:43.271Z,28.93
2023-03-10T09:41:41.535Z,24.93
2023-03-10T09:44:26.068Z,24.97
2023-03-10T09:47:22.898Z,22.07
2023-03-10T09:50:03.266Z,21.10
2023-03-10T09:52:44.441Z,19.63
2023-03-10T09:55:22.469Z,21.83
2023-03-10T09:57:52.039Z,23.23
2023-03-10T10:00:23.783Z,18.60
2023-03-10T10:02:59.958Z,24.47
2023-03-10T10:05:32.989Z,31.70
2023-03-10T10:08:03.071Z,37.57
2023-03-10T10:10:37.007Z,18.60
2023-03-10T10:13:16.149Z,16.77
2023-03-10T10:16:07.371Z,14.63
2023-03-10T10:18:48.497Z,15.07
2023-03-10T10:21:30.651Z,15.97
2023-03-10T10:24:00.444Z,15.37
2023-03-10T10:26:28.154Z,13.67
2023-03-10T10:29:01.182Z,14.53
2023-03-10T10:31:30.943Z,17.93
2023-03-10T10:33:59.067Z,19.53
2023-03-10T10:36:35.205Z,15.23
2023-03-10T10:39:12.708Z,18.07
2023-03-10T10:41:40.066Z,15.53
2023-03-10T10:44:14.571Z,14.10
2023-03-10T10:46:52.604Z,16.10
2023-03-10T10:49:25.988Z,16.93
2023-03-10T10:52:05.161Z,13.47
2023-03-10T10:54:37.913Z,16.30
2023-03-10T10:57:25.876Z,13.37
2023-03-10T10:59:52.757Z,15.70
2023-03-10T11:02:34.495Z,17.60
2023-03-10T11:05:16.532Z,15.73
2023-03-10T11:07:44.577Z,15.43
2023-03-10T11:10:16.534Z,19.97
2023-03-10T11:13:06.474Z,14.87
2023-03-10T11:15:44.883Z,14.67
2023-03-10T11:18:18.997Z,18.23
2023-03-10T11:20:55.358Z,18.50
2023-03-10T11:23:29.600Z,18.00
2023-03-10T11:26:21.217Z,16.73
2023-03-10T11:29:02.183Z,13.37
2023-03-10T11:31:43.916Z,14.50
2023-03-10T11:34:30.336Z,11.57
2023-03-10T11:37:33.208Z,15.50
2023-03-10T11:40:26.653Z,15.30
2023-03-10T11:43:05.509Z,12.67
2023-03-10T11:45:38.987Z,13.33
2023-03-10T11:48:39.074Z,9.17
2023-03-10T11:51:06.211Z,13.17
2023-03-10T11:53:45.063Z,9.67
2023-03-10T11:56:14.975Z,10.30
2023-03-10T11:59:00.131Z,9.07
2023-03-10T12:01:56.846Z,9.30
2023-03-10T12:04:45.164Z,12.63
2023-03-10T12:07:40.202Z,12.27
2023-03-10T12:10:12.890Z,15.60
2023-03-10T12:12:45.507Z,13.90
2023-03-10T12:15:20.155Z,10.97
2023-03-10T12:17:49.285Z,10.83
2023-03-10T12:20:18.902Z,16.27
2023-03-10T12:22:57.519Z,13.43
2023-03-10T12:25:30.391Z,14.90
2023-03-10T12:28:28.909Z,10.73
2023-03-10T12:30:56.513Z,12.73
2023-03-10T12:33:38.645Z,12.60
2023-03-10T12:36:18.138Z,18.37
2023-03-10T12:39:02.252Z,13.67
2023-03-10T12:41:28.883Z,14.50
2023-03-10T12:44:14.981Z,15.37
2023-03-10T12:46:53.169Z,18.70
2023-03-10T12:49:23.262Z,15.27
2023-03-10T12:52:02.279Z,20.87
2023-03-10T12:54:47.201Z,13.90
2023-03-10T12:57:39.970Z,14.83
2023-03-10T13:00:22.080Z,18.90
2023-03-10T13:03:07.497Z,15.27
2023-03-10T13:05:38.860Z,16.27
2023-03-10T13:08:45.681Z,15.33
2023-03-10T13:11:18.648Z,16.37
2023-03-10T13:13:50.372Z,16.10
2023-03-10T13:16:19.992Z,16.53
2023-03-10T13:18:51.966Z,13.93
2023-03-10T13:21:34.222Z,18.50
2023-03-10T13:24:03.185Z,16.13
2023-03-10T13:26:30.640Z,14.33
2023-03-10T13:29:00.814Z,14.67
2023-03-10T13:31:30.525Z,15.80
2023-03-10T13:33:58.466Z,17.13
2023-03-10T13:36:36.735Z,11.83
2023-03-10T13:39:11.918Z,17.40
2023-03-10T13:41:41.213Z,14.23
2023-03-10T13:44:17.586Z,15.57
2023-03-10T13:46:53.763Z,13.23
2023-03-10T13:49:25.463Z,12.23
2023-03-10T13:51:58.689Z,13.70
2023-03-10T13:54:28.579Z,12.80
2023-03-10T13:56:58.692Z,16.20
2023-03-10T13:59:31.713Z,14.17
2023-03-10T14:02:00.944Z,13.03
2023-03-10T14:04:43.149Z,15.13
2023-03-10T14:07:22.854Z,17.67
2023-03-10T14:10:10.419Z,12.03
2023-03-10T14:12:45.047Z,12.77
2023-03-10T14:15:14.914Z,10.63
2023-03-10T14:17:43.366Z,10.77
2023-03-10T14:20:31.608Z,12.80
2023-03-10T14:22:58.940Z,14.60
2023-03-10T14:25:27.240Z,13.03
2023-03-10T14:27:56.956Z,11.67
2023-03-10T14:30:32.265Z,13.83
2023-03-10T14:33:00.974Z,15.87
2023-03-10T14:35:29.303Z,15.00
2023-03-10T14:37:56.256Z,14.63
2023-03-10T14:40:24.876Z,13.20
2023-03-10T14:42:53.060Z,13.23
2023-03-10T14:45:25.376Z,10.80
2023-03-10T14:47:52.619Z,10.80
2023-03-10T14:50:20.738Z,17.00
2023-03-10T14:52:47.436Z,14.47
2023-03-10T14:55:14.638Z,13.43
2023-03-10T14:57:43.150Z,11.20
2023-03-10T15:00:28.280Z,14.50
2023-03-10T15:02:55.208Z,10.07
2023-03-10T15:05:31.902Z,13.37
2023-03-10T15:08:05.498Z,13.60
2023-03-10T15:10:38.614Z,17.83
2023-03-10T15:13:05.588Z,13.60
2023-03-10T15:15:41.929Z,12.10
2023-03-10T15:18:13.486Z,18.80
2023-03-10T15:20:40.513Z,14.93
2023-03-10T15:23:07.559Z,18.20
2023-03-10T15:25:34.243Z,13.23
2023-03-10T15:28:01.192Z,13.27
2023-03-10T15:30:34.038Z,14.67
2023-03-10T15:33:00.942Z,12.83
2023-03-10T15:35:29.311Z,11.00
2023-03-10T15:37:57.068Z,12.67
2023-03-10T15:40:30.111Z,13.87
2023-03-10T15:42:58.679Z,16.47
2023-03-10T15:45:28.136Z,14.57
2023-03-10T15:47:55.436Z,14.80
2023-03-10T15:50:23.059Z,15.17
2023-03-10T15:52:55.667Z,14.97
2023-03-10T15:55:22.875Z,15.07
2023-03-10T15:57:50.193Z,15.50
2023-03-10T16:00:22.113Z,13.13
2023-03-10T16:02:50.001Z,15.37
2023-03-10T16:05:19.494Z,15.00
2023-03-10T16:07:47.204Z,20.47
2023-03-10T16:10:17.087Z,14.13
2023-03-10T16:12:46.294Z,14.50
2023-03-10T16:15:16.292Z,16.90
2023-03-10T16:17:44.431Z,14.93
2023-03-10T16:20:12.845Z,17.15
2023-03-10T16:22:41.487Z,16.90
2023-03-10T16:25:11.826Z,14.47
2023-03-10T16:27:38.604Z,49.27
2023-03-10T16:30:06.414Z,15.97
2023-03-10T16:32:33.884Z,17.43
2023-03-10T16:35:00.877Z,15.97
2023-03-10T16:37:28.735Z,14.60
2023-03-10T16:39:56.174Z,14.87
2023-03-10T16:42:26.468Z,14.13
2023-03-10T16:44:57.086Z,11.07
2023-03-10T16:47:24.408Z,16.30
2023-03-10T16:49:51.194Z,12.17
2023-03-10T16:52:18.380Z,13.63
2023-03-10T16:54:46.620Z,12.20
2023-03-10T16:57:14.869Z,19.33
2023-03-10T16:59:42.805Z,13.10
2023-03-10T17:02:15.412Z,9.87
2023-03-10T17:04:46.441Z,12.57
2023-03-10T17:07:14.157Z,17.03
2023-03-10T17:09:41.127Z,10.63
2023-03-10T17:12:08.045Z,10.77
2023-03-10T17:14:34.881Z,11.43
2023-03-10T17:17:01.752Z,11.70
2023-03-10T17:19:30.181Z,12.53
2023-03-10T17:21:58.282Z,12.80
2023-03-10T17:24:25.946Z,10.10
2023-03-10T17:26:53.460Z,13.77
2023-03-10T17:29:20.941Z,15.97
2023-03-10T17:31:50.186Z,13.73
2023-03-10T17:34:18.058Z,9.33
2023-03-10T17:36:45.100Z,9.80
2023-03-10T17:39:18.993Z,15.17
2023-03-10T17:41:46.444Z,14.60
2023-03-10T17:44:13.218Z,14.37
2023-03-10T17:46:41.103Z,10.50
2023-03-10T17:49:11.833Z,16.13
2023-03-10T17:51:39.617Z,12.57
2023-03-10T17:54:07.409Z,11.60
2023-03-10T17:56:34.261Z,15.37
2023-03-10T17:59:01.019Z,9.30
2023-03-10T18:01:29.884Z,8.37
2023-03-10T18:03:58.591Z,9.50
2023-03-10T18:06:28.491Z,9.33
2023-03-10T18:08:57.034Z,12.53
2023-03-10T18:11:25.681Z,8.73
2023-03-10T18:13:52.839Z,8.07
2023-03-10T18:16:27.754Z,9.10
2023-03-10T18:18:56.030Z,6.90
2023-03-10T18:21:25.521Z,11.70
2023-03-10T18:23:53.046Z,9.43
2023-03-10T18:26:22.760Z,11.00
2023-03-10T18:28:49.505Z,9.87
2023-03-10T18:31:19.642Z,11.57
2023-03-10T18:33:46.908Z,6.80
2023-03-10T18:36:14.774Z,8.67
2023-03-10T18:38:41.997Z,8.33
2023-03-10T18:41:08.899Z,10.20
2023-03-10T18:43:35.887Z,7.57
2023-03-10T18:46:03.353Z,10.13
2023-03-10T18:48:30.250Z,10.60
2023-03-10T18:50:59.255Z,10.37
2023-03-10T18:53:27.598Z,11.10
2023-03-10T18:55:54.429Z,6.37
2023-03-10T18:58:22.118Z,6.40
2023-03-10T19:00:50.525Z,9.03
2023-03-10T19:03:18.400Z,6.13
2023-03-10T19:05:45.493Z,6.10
2023-03-10T19:08:14.345Z,8.77
2023-03-10T19:10:41.088Z,9.80
2023-03-10T19:13:08.022Z,6.17
2023-03-10T19:15:37.080Z,14.10
2023-03-10T19:18:04.225Z,7.70
2023-03-10T19:20:31.075Z,7.97
2023-03-10T19:22:57.843Z,9.00
2023-03-10T19:25:24.650Z,7.23
2023-03-10T19:27:51.475Z,7.87
2023-03-10T19:30:20.579Z,7.53
2023-03-10T19:32:48.001Z,6.23
2023-03-10T19:35:15.766Z,10.73
2023-03-10T19:37:46.170Z,7.50
2023-03-10T19:40:17.296Z,6.83
2023-03-10T19:42:44.549Z,10.90
2023-03-10T19:45:13.270Z,10.43
2023-03-10T19:47:41.609Z,6.80
2023-03-10T19:50:12.310Z,5.43
2023-03-10T19:52:46.803Z,5.83
2023-03-10T19:55:19.971Z,4.23
2023-03-10T19:57:48.716Z,7.13
2023-03-10T20:00:18.861Z,6.47
2023-03-10T20:02:46.336Z,10.57
2023-03-10T20:05:14.683Z,6.17
2023-03-10T20:07:45.095Z,9.13
2023-03-10T20:10:12.761Z,7.80
2023-03-10T20:12:39.746Z,7.60
2023-03-10T20:15:08.410Z,9.83
2023-03-10T20:17:35.523Z,7.63
2023-03-10T20:20:09.906Z,4.93
2023-03-10T20:22:39.000Z,7.90
2023-03-10T20:25:07.267Z,9.67
2023-03-10T20:27:34.510Z,6.67
2023-03-10T20:30:01.712Z,8.17
2023-03-10T20:32:28.733Z,7.43
2023-03-10T20:34:55.435Z,6.90
2023-03-10T20:37:22.158Z,7.20
2023-03-10T20:39:48.909Z,6.43
2023-03-10T20:42:15.638Z,8.73
2023-03-10T20:44:42.406Z,8.10
2023-03-10T20:47:09.146Z,7.57
2023-03-10T20:49:35.918Z,5.23
2023-03-10T20:52:03.258Z,5.10
2023-03-10T20:54:30.571Z,6.87
2023-03-10T20:57:00.613Z,6.83
2023-03-10T20:59:28.340Z,6.77
2023-03-10T21:01:54.976Z,8.83
2023-03-10T21:04:21.864Z,9.37
2023-03-10T21:06:48.615Z,7.13
2023-03-10T21:09:15.305Z,10.13
2023-03-10T21:11:42.125Z,9.33
2023-03-10T21:14:09.030Z,9.57
2023-03-10T21:16:41.601Z,8.90
2023-03-10T21:19:09.690Z,6.50
2023-03-10T21:21:36.587Z,9.13
2023-03-10T21:24:04.813Z,10.33
2023-03-10T21:26:32.089Z,9.03
2023-03-10T21:29:00.127Z,11.53
2023-03-10T21:31:26.929Z,10.63
2023-03-10T21:33:53.854Z,7.83
2023-03-10T21:36:23.743Z,9.43
2023-03-10T21:38:51.036Z,8.40
2023-03-10T21:41:19.926Z,11.87
2023-03-10T21:43:46.626Z,10.07
2023-03-10T21:46:13.501Z,12.60
2023-03-10T21:48:40.228Z,12.40
2023-03-10T21:51:09.806Z,13.50
2023-03-10T21:53:36.850Z,13.60
2023-03-10T21:56:03.789Z,13.03
2023-03-10T21:58:30.632Z,16.17
2023-03-10T22:00:57.473Z,12.43
2023-03-10T22:03:24.139Z,14.90
2023-03-10T22:05:50.862Z,12.67
2023-03-10T22:08:17.830Z,10.97
2023-03-10T22:10:45.607Z,12.53
2023-03-10T22:13:12.418Z,13.27
2023-03-10T22:15:39.682Z,14.53
2023-03-10T22:18:06.728Z,12.20
2023-03-10T22:20:33.471Z,14.03
2023-03-10T22:23:00.267Z,16.20
2023-03-10T22:25:26.991Z,17.63
2023-03-10T22:27:55.943Z,11.30
2023-03-10T22:30:24.975Z,11.30
2023-03-10T22:32:52.349Z,11.40
2023-03-10T22:35:19.494Z,8.60
2023-03-10T22:37:53.300Z,7.63
2023-03-10T22:40:23.264Z,12.93
2023-03-10T22:42:50.035Z,9.70
2023-03-10T22:45:29.438Z,11.87
2023-03-10T22:47:59.018Z,12.33
2023-03-10T22:50:37.757Z,8.07
2023-03-10T22:53:08.170Z,9.93
2023-03-10T22:55:35.761Z,13.93
2023-03-10T22:58:04.493Z,11.93
2023-03-10T23:00:32.274Z,11.83
2023-03-10T23:02:59.119Z,14.87
2023-03-10T23:05:26.981Z,8.87
2023-03-10T23:07:54.009Z,11.10
2023-03-10T23:10:29.907Z,10.20
2023-03-10T23:12:59.366Z,9.97
2023-03-10T23:15:28.797Z,12.57
2023-03-10T23:17:56.520Z,7.70
2023-03-10T23:20:27.399Z,9.97
2023-03-10T23:22:56.741Z,10.27
2023-03-10T23:25:30.574Z,7.63
2023-03-10T23:27:57.698Z,9.30
2023-03-10T23:30:25.923Z,7.77
2023-03-10T23:32:53.433Z,10.37
2023-03-10T23:35:24.044Z,11.17
2023-03-10T23:37:51.150Z,11.03
2023-03-10T23:40:20.215Z,10.23
2023-03-10T23:42:47.293Z,11.60
2023-03-10T23:45:18.166Z,9.00
2023-03-10T23:47:46.076Z,11.37
2023-03-10T23:50:32.940Z,14.20
2023-03-10T23:53:00.973Z,12.70
2023-03-10T23:55:32.103Z,9.20
2023-03-10T23:57:59.140Z,9.17
